To NAV CANADA Home Page Login to a new session Search on AWWS site Disclaimer Vers la page française équivalente Tips FAQ What's new on the site To the Forecasts and Observations / NOTAM section To "File a Flight Plan" website Publications and other links Update of the User's profile FIC Telephone Numbers My Weather Data Folder Route Weather Data Regional Weather Data Local Weather Data To the Forecasts and Observations / NOTAM section
Request Generated 12/01/2020 at 08:03:24 UTC . Weather information available at that time is displayed.

METAR/TAF

PETERBOROUGH/ON    (show WxCam)

METAR CYPQ 010800Z AUTO 34009KT 3SM -RA BR OVC007 01/01 A2943 RMK SLP975=
SPECI CYPQ 010714Z AUTO 33006KT 3SM -RA BR BKN007 BKN085 OVC160 02/01 A2942 RMK SLP974=
SPECI CYPQ 010701Z AUTO 36009KT 3SM -RA BR SCT007 BKN085 OVC160 02/01 A2942 RMK SLP973=
METAR CYPQ 010700Z AUTO 35010KT 3SM -RA BR BKN007 BKN085 OVC160 02/02 A2942 RMK SLP973=
SPECI CYPQ 010656Z AUTO 35008KT 3SM -RA BR BKN007 BKN080 OVC160 02/02 A2942 RMK SLP972=
SPECI CYPQ 010654Z AUTO 34007KT 2 1/2SM -RA BR BKN007 BKN080 OVC160 02/02 A2942 RMK SLP973=
SPECI CYPQ 010648Z AUTO 33006KT 2 1/4SM -RA BR BKN007 BKN080 OVC160 02/02 A2942 RMK SLP973=
METAR CYPQ 010600Z AUTO 35008KT 3SM -RA BR BKN007 BKN085 OVC160 02/02 A2942 RMK SLP972=

*** REMARK        : Forecast period has ended; this was the last TAF issued
*** REMARQUE : La période de prévision est échue; ceci était le dernier TAF qui a été émis
TAF CYPQ 301938Z 3020/0103 02012KT 4SM -RA BR OVC005 TEMPO 3020/0103
6SM -RA BR OVC010 PROB30 3020/0103 OVC004
RMK FCST BASED ON AUTO OBS. NXT FCST WILL BE ISSUED AT 011045Z=
Your time UTC time
Weather data provided by Environment Canada and NAV CANADA